createdAt,value
2018-07-15T00:01:00.808Z,13.70
2018-07-15T00:03:29.281Z,13.70
2018-07-15T00:05:57.832Z,13.60
2018-07-15T00:08:26.283Z,13.60
2018-07-15T00:10:54.722Z,13.50
2018-07-15T00:13:23.240Z,13.50
2018-07-15T00:15:51.673Z,13.50
2018-07-15T00:18:20.264Z,13.50
2018-07-15T00:20:48.803Z,13.40
2018-07-15T00:23:17.262Z,13.40
2018-07-15T00:25:45.822Z,13.40
2018-07-15T00:28:14.313Z,13.40
2018-07-15T00:30:42.789Z,13.40
2018-07-15T00:33:11.332Z,13.30
2018-07-15T00:35:39.786Z,13.30
2018-07-15T00:38:08.314Z,13.30
2018-07-15T00:40:36.752Z,13.30
2018-07-15T00:43:05.330Z,13.30
2018-07-15T00:45:33.804Z,13.30
2018-07-15T00:48:02.321Z,13.30
2018-07-15T00:50:30.872Z,13.30
2018-07-15T00:52:59.450Z,13.30
2018-07-15T00:55:27.874Z,13.20
2018-07-15T00:57:56.361Z,13.20
2018-07-15T01:00:30.146Z,13.20
2018-07-15T01:02:58.651Z,13.20
2018-07-15T01:05:27.170Z,13.20
2018-07-15T01:07:55.710Z,13.20
2018-07-15T01:12:52.394Z,13.20
2018-07-15T01:15:20.898Z,13.10
2018-07-15T01:17:49.539Z,13.10
2018-07-15T01:20:18.031Z,13.20
2018-07-15T01:22:47.435Z,13.20
2018-07-15T01:25:16.014Z,13.20
2018-07-15T01:27:44.612Z,13.20
2018-07-15T01:30:13.160Z,13.30
2018-07-15T01:32:41.674Z,13.30
2018-07-15T01:35:10.733Z,13.30
2018-07-15T01:37:39.190Z,13.30
2018-07-15T01:40:07.714Z,13.30
2018-07-15T01:42:36.133Z,13.30
2018-07-15T01:45:04.610Z,13.30
2018-07-15T01:47:33.097Z,13.40
2018-07-15T01:50:01.535Z,13.40
2018-07-15T01:52:29.942Z,13.50
2018-07-15T01:54:58.458Z,13.60
2018-07-15T01:57:26.982Z,13.70
2018-07-15T01:59:55.466Z,13.80
2018-07-15T02:02:24.040Z,13.90
2018-07-15T02:04:52.889Z,13.90
2018-07-15T02:07:21.354Z,14.00
2018-07-15T02:09:49.834Z,14.00
2018-07-15T02:12:18.412Z,14.00
2018-07-15T02:17:15.579Z,13.90
2018-07-15T02:19:44.258Z,13.90
2018-07-15T02:22:12.748Z,13.80
2018-07-15T02:24:41.266Z,13.80
2018-07-15T02:27:09.691Z,13.80
2018-07-15T02:29:38.150Z,13.70
2018-07-15T02:32:06.846Z,13.70
2018-07-15T02:34:35.354Z,13.70
2018-07-15T02:37:03.875Z,13.70
2018-07-15T02:39:32.424Z,13.70
2018-07-15T02:42:00.868Z,13.60
2018-07-15T02:44:29.306Z,13.60
2018-07-15T02:46:57.847Z,13.50
2018-07-15T02:49:26.330Z,13.50
2018-07-15T02:51:54.870Z,13.40
2018-07-15T02:54:23.374Z,13.40
2018-07-15T02:56:51.814Z,13.30
2018-07-15T02:59:20.286Z,13.30
2018-07-15T03:01:48.787Z,13.20
2018-07-15T03:04:17.255Z,13.30
2018-07-15T03:06:45.715Z,13.30
2018-07-15T03:09:14.402Z,13.30
2018-07-15T03:11:42.841Z,13.30
2018-07-15T03:14:11.298Z,13.30
2018-07-15T03:16:40.614Z,13.30
2018-07-15T03:19:09.079Z,13.40
2018-07-15T03:21:37.538Z,13.40
2018-07-15T03:24:06.035Z,13.40
2018-07-15T03:26:34.967Z,13.50
2018-07-15T03:29:03.878Z,13.50
2018-07-15T03:31:32.678Z,13.60
2018-07-15T03:34:01.247Z,13.60
2018-07-15T03:36:29.773Z,13.60
2018-07-15T03:38:58.343Z,13.70
2018-07-15T03:41:26.898Z,13.80
2018-07-15T03:43:55.454Z,13.90
2018-07-15T03:46:23.953Z,13.90
2018-07-15T03:48:52.393Z,14.00
2018-07-15T03:51:20.862Z,14.20
2018-07-15T03:53:49.399Z,14.30
2018-07-15T03:56:18.278Z,14.40
2018-07-15T03:58:46.725Z,14.60
2018-07-15T04:01:15.231Z,14.70
2018-07-15T04:03:43.689Z,14.80
2018-07-15T04:06:12.152Z,14.90
2018-07-15T04:08:40.806Z,15.00
2018-07-15T04:11:09.215Z,15.10
2018-07-15T04:13:37.651Z,15.20
2018-07-15T04:16:06.146Z,15.30
2018-07-15T04:18:34.646Z,15.40
2018-07-15T04:25:59.455Z,15.70
2018-07-15T04:28:27.993Z,15.80
2018-07-15T04:30:56.700Z,15.90
2018-07-15T04:33:26.007Z,16.00
2018-07-15T04:35:54.436Z,16.10
2018-07-15T04:38:23.010Z,16.10
2018-07-15T04:40:51.537Z,16.20
2018-07-15T04:43:19.987Z,16.30
2018-07-15T04:45:48.536Z,16.40
2018-07-15T04:48:17.061Z,16.50
2018-07-15T04:50:46.050Z,16.60
2018-07-15T04:53:14.524Z,16.70
2018-07-15T04:55:42.994Z,16.80
2018-07-15T04:58:11.462Z,16.80
2018-07-15T05:00:40.054Z,16.90
2018-07-15T05:03:08.654Z,17.00
2018-07-15T05:05:37.217Z,17.00
2018-07-15T05:08:05.934Z,17.10
2018-07-15T05:10:34.419Z,17.20
2018-07-15T05:15:31.166Z,17.30
2018-07-15T05:17:59.774Z,17.40
2018-07-15T05:20:28.247Z,17.40
2018-07-15T05:22:56.953Z,17.50
2018-07-15T05:25:25.558Z,17.60
2018-07-15T05:27:54.006Z,17.60
2018-07-15T05:30:22.637Z,17.60
2018-07-15T05:32:51.194Z,17.70
2018-07-15T05:35:23.535Z,17.70
2018-07-15T05:37:51.993Z,17.80
2018-07-15T05:40:20.654Z,17.90
2018-07-15T05:42:49.175Z,18.00
2018-07-15T05:45:17.647Z,18.00
2018-07-15T05:47:46.159Z,18.10
2018-07-15T05:50:14.878Z,18.10
2018-07-15T05:52:43.327Z,18.20
2018-07-15T05:55:11.867Z,18.20
2018-07-15T05:57:40.382Z,18.30
2018-07-15T06:00:08.943Z,18.40
2018-07-15T06:02:37.380Z,18.40
2018-07-15T06:05:05.954Z,18.50
2018-07-15T06:07:34.394Z,18.50
2018-07-15T06:10:02.836Z,18.50
2018-07-15T06:12:31.554Z,18.60
2018-07-15T06:15:00.167Z,18.60
2018-07-15T06:17:29.245Z,18.60
2018-07-15T06:19:57.797Z,18.70
2018-07-15T06:24:54.506Z,18.70
2018-07-15T06:27:23.074Z,18.70
2018-07-15T06:29:51.635Z,18.80
2018-07-15T06:32:20.187Z,18.80
2018-07-15T06:34:48.773Z,19.00
2018-07-15T06:37:17.698Z,19.10
2018-07-15T06:39:46.152Z,19.20
2018-07-15T06:42:15.286Z,19.30
2018-07-15T06:44:43.787Z,19.40
2018-07-15T06:47:12.226Z,19.50
2018-07-15T06:49:40.750Z,19.60
2018-07-15T06:52:09.182Z,19.70
2018-07-15T06:54:37.615Z,19.80
2018-07-15T06:57:06.123Z,20.00
2018-07-15T06:59:34.818Z,20.10
2018-07-15T07:02:03.329Z,20.20
2018-07-15T07:04:32.088Z,20.30
2018-07-15T07:07:00.644Z,20.30
2018-07-15T07:09:29.159Z,20.40
2018-07-15T07:11:57.786Z,20.50
2018-07-15T07:16:55.234Z,20.70
2018-07-15T07:19:23.965Z,20.70
2018-07-15T07:21:52.533Z,20.70
2018-07-15T07:26:49.250Z,20.90
2018-07-15T07:29:17.688Z,21.00
2018-07-15T07:31:46.325Z,21.10
2018-07-15T07:34:14.912Z,21.00
2018-07-15T07:36:43.518Z,21.00
2018-07-15T07:39:12.294Z,21.00
2018-07-15T07:41:41.019Z,21.10
2018-07-15T07:46:38.066Z,21.30
2018-07-15T07:51:34.791Z,21.30
2018-07-15T07:54:03.329Z,21.30
2018-07-15T07:59:00.202Z,21.30
2018-07-15T08:01:28.646Z,21.40
2018-07-15T08:03:57.283Z,21.40
2018-07-15T08:06:25.828Z,21.40
2018-07-15T08:08:54.522Z,21.40
2018-07-15T08:11:23.002Z,21.40
2018-07-15T08:13:51.584Z,21.40
2018-07-15T08:16:20.075Z,21.40
2018-07-15T08:18:49.831Z,21.40
2018-07-15T08:21:18.524Z,21.40
2018-07-15T08:23:46.984Z,21.30
2018-07-15T08:26:15.606Z,21.30
2018-07-15T08:28:44.134Z,21.40
2018-07-15T08:31:16.395Z,21.50
2018-07-15T08:33:44.868Z,21.60
2018-07-15T08:36:13.539Z,21.70
2018-07-15T08:38:42.636Z,21.90
2018-07-15T08:41:11.206Z,22.00
2018-07-15T08:43:39.883Z,22.10
2018-07-15T08:47:37.822Z,22.10
2018-07-15T08:50:06.269Z,22.10
2018-07-15T08:52:34.782Z,22.20
2018-07-15T08:55:03.469Z,22.10
2018-07-15T08:57:32.006Z,22.10
2018-07-15T09:00:00.586Z,22.00
2018-07-15T09:02:29.286Z,22.10
2018-07-15T09:04:58.590Z,22.20
2018-07-15T09:07:27.178Z,22.40
2018-07-15T09:09:55.682Z,22.50
2018-07-15T09:12:24.317Z,22.50
2018-07-15T09:14:52.773Z,22.50
2018-07-15T09:17:21.234Z,22.60
2018-07-15T09:19:49.894Z,22.60
2018-07-15T09:22:18.620Z,22.60
2018-07-15T09:24:47.310Z,22.80
2018-07-15T09:27:15.864Z,22.90
2018-07-15T09:29:44.531Z,22.80
2018-07-15T09:32:13.150Z,22.80
2018-07-15T09:34:41.620Z,22.90
2018-07-15T09:37:10.176Z,22.90
2018-07-15T09:39:38.703Z,23.10
2018-07-15T09:42:07.170Z,23.00
2018-07-15T09:44:35.747Z,22.90
2018-07-15T09:47:04.247Z,23.00
2018-07-15T09:49:32.838Z,23.00
2018-07-15T09:52:01.412Z,23.00
2018-07-15T09:54:29.907Z,23.00
2018-07-15T09:57:04.672Z,23.00
2018-07-15T09:59:33.383Z,23.00
2018-07-15T10:02:02.040Z,23.00
2018-07-15T10:04:30.610Z,22.90
2018-07-15T10:06:59.125Z,22.90
2018-07-15T10:09:27.559Z,22.90
2018-07-15T10:11:55.982Z,22.90
2018-07-15T10:16:52.795Z,23.00
2018-07-15T10:19:21.328Z,23.20
2018-07-15T10:21:49.762Z,23.30
2018-07-15T10:24:18.219Z,23.40
2018-07-15T10:26:47.246Z,23.50
2018-07-15T10:29:15.838Z,23.50
2018-07-15T10:31:44.385Z,23.50
2018-07-15T10:34:12.818Z,23.60
2018-07-15T10:36:41.606Z,23.70
2018-07-15T10:39:11.026Z,23.70
2018-07-15T10:41:39.730Z,23.70
2018-07-15T10:44:08.317Z,23.80
2018-07-15T10:46:36.811Z,23.90
2018-07-15T10:49:05.338Z,23.90
2018-07-15T10:51:33.999Z,23.80
2018-07-15T10:54:02.534Z,23.70
2018-07-15T10:56:31.210Z,23.70
2018-07-15T10:58:59.776Z,23.50
2018-07-15T11:01:29.930Z,23.60
2018-07-15T11:03:58.454Z,23.50
2018-07-15T11:06:27.253Z,23.50
2018-07-15T11:08:55.754Z,23.50
2018-07-15T11:11:25.983Z,23.70
2018-07-15T11:13:55.299Z,23.70
2018-07-15T11:16:23.829Z,23.70
2018-07-15T11:18:52.544Z,23.60
2018-07-15T11:21:21.126Z,23.60
2018-07-15T11:23:49.721Z,23.70
2018-07-15T11:26:18.422Z,23.90
2018-07-15T11:28:46.994Z,24.20
2018-07-15T11:31:16.204Z,24.50
2018-07-15T11:33:44.658Z,24.40
2018-07-15T11:36:13.227Z,24.50
2018-07-15T11:38:41.914Z,24.50
2018-07-15T11:41:10.361Z,24.50
2018-07-15T11:43:38.906Z,24.50
2018-07-15T11:46:07.456Z,24.40
2018-07-15T11:48:35.919Z,24.20
2018-07-15T11:51:04.456Z,24.10
2018-07-15T11:53:33.201Z,24.00
2018-07-15T11:56:01.886Z,23.80
2018-07-15T11:58:30.466Z,23.90
2018-07-15T12:00:58.917Z,24.00
2018-07-15T12:03:27.475Z,24.20
2018-07-15T12:05:56.053Z,24.30
2018-07-15T12:08:24.743Z,24.40
2018-07-15T12:10:53.369Z,24.50
2018-07-15T12:13:22.331Z,24.50
2018-07-15T12:15:50.781Z,24.40
2018-07-15T12:18:19.326Z,24.30
2018-07-15T12:20:47.994Z,24.20
2018-07-15T12:23:16.617Z,24.10
2018-07-15T12:25:45.106Z,24.10
2018-07-15T12:28:13.854Z,24.10
2018-07-15T12:30:42.393Z,24.30
2018-07-15T12:33:10.845Z,24.40
2018-07-15T12:35:45.098Z,24.50
2018-07-15T12:40:41.909Z,24.60
2018-07-15T12:43:10.523Z,24.60
2018-07-15T12:45:38.963Z,24.60
2018-07-15T12:48:07.634Z,24.40
2018-07-15T12:50:36.245Z,24.10
2018-07-15T12:53:04.829Z,24.10
2018-07-15T12:55:33.290Z,24.20
2018-07-15T12:58:01.937Z,24.40
2018-07-15T13:00:30.498Z,24.70
2018-07-15T13:02:59.125Z,24.70
2018-07-15T13:05:27.672Z,24.80
2018-07-15T13:07:56.145Z,24.80
2018-07-15T13:10:24.609Z,24.70
2018-07-15T13:12:53.178Z,24.80
2018-07-15T13:15:21.635Z,25.00
2018-07-15T13:17:50.110Z,25.10
2018-07-15T13:20:18.642Z,25.20
2018-07-15T13:22:47.854Z,25.20
2018-07-15T13:25:16.384Z,25.20
2018-07-15T13:27:45.735Z,25.20
2018-07-15T13:30:14.233Z,25.30
2018-07-15T13:32:42.910Z,25.50
2018-07-15T13:35:11.395Z,25.60
2018-07-15T13:37:40.023Z,25.70
2018-07-15T13:40:08.714Z,25.80
2018-07-15T13:42:37.230Z,25.80
2018-07-15T13:45:05.690Z,25.90
2018-07-15T13:47:34.138Z,25.90
2018-07-15T13:50:02.688Z,25.80
2018-07-15T13:52:31.126Z,25.70
2018-07-15T13:55:00.285Z,25.80
2018-07-15T13:57:28.754Z,25.70
2018-07-15T13:59:57.204Z,25.70
2018-07-15T14:02:25.732Z,25.70
2018-07-15T14:04:54.286Z,25.70
2018-07-15T14:07:22.782Z,25.70
2018-07-15T14:09:51.241Z,25.80
2018-07-15T14:14:47.979Z,25.80
2018-07-15T14:17:16.429Z,25.70
2018-07-15T14:19:45.007Z,25.70
2018-07-15T14:22:13.558Z,25.70
2018-07-15T14:24:42.118Z,25.80
2018-07-15T14:27:10.698Z,25.70
2018-07-15T14:29:39.190Z,25.70
2018-07-15T14:32:07.810Z,25.80
2018-07-15T14:34:36.340Z,25.80
2018-07-15T14:37:04.838Z,25.80
2018-07-15T14:39:35.393Z,25.90
2018-07-15T14:42:04.349Z,25.90
2018-07-15T14:44:32.903Z,25.80
2018-07-15T14:47:01.550Z,25.70
2018-07-15T14:49:30.191Z,25.70
2018-07-15T14:51:59.072Z,25.60
2018-07-15T14:54:27.654Z,25.60
2018-07-15T14:56:57.258Z,25.60
2018-07-15T14:59:25.722Z,25.60
2018-07-15T15:01:54.995Z,25.60
2018-07-15T15:04:23.478Z,25.70
2018-07-15T15:06:51.970Z,25.80
2018-07-15T15:09:20.437Z,25.80
2018-07-15T15:11:48.962Z,25.70
2018-07-15T15:14:17.518Z,25.80
2018-07-15T15:16:45.974Z,25.90
2018-07-15T15:19:14.471Z,26.00
2018-07-15T15:21:42.913Z,26.10
2018-07-15T15:24:11.342Z,26.10
2018-07-15T15:26:39.925Z,26.20
2018-07-15T15:29:08.567Z,26.20
2018-07-15T15:31:37.116Z,26.10
2018-07-15T15:34:05.694Z,26.10
2018-07-15T15:38:03.406Z,26.10
2018-07-15T15:40:32.028Z,26.30
2018-07-15T15:43:00.582Z,26.60
2018-07-15T15:45:29.102Z,26.70
2018-07-15T15:47:57.675Z,26.80
2018-07-15T15:50:26.255Z,26.80
2018-07-15T15:52:54.690Z,27.00
2018-07-15T15:55:23.310Z,27.30
2018-07-15T15:57:51.861Z,27.30
2018-07-15T16:00:20.298Z,27.40
2018-07-15T16:02:48.859Z,27.60
2018-07-15T16:05:17.344Z,28.00
2018-07-15T16:07:45.775Z,28.30
2018-07-15T16:10:14.466Z,28.80
2018-07-15T16:12:43.202Z,29.10
2018-07-15T16:15:11.910Z,29.50
2018-07-15T16:17:40.558Z,29.80
2018-07-15T16:20:09.033Z,30.00
2018-07-15T16:25:05.814Z,30.60
2018-07-15T16:27:34.603Z,30.70
2018-07-15T16:32:31.199Z,31.00
2018-07-15T16:34:59.722Z,31.10
2018-07-15T16:37:28.275Z,31.50
2018-07-15T16:39:56.785Z,31.50
2018-07-15T16:42:25.326Z,31.30
2018-07-15T16:44:53.756Z,31.20
2018-07-15T16:47:22.318Z,31.20
2018-07-15T16:49:50.924Z,31.20
2018-07-15T16:52:19.326Z,31.50
2018-07-15T16:54:47.942Z,31.70
2018-07-15T16:57:16.528Z,31.50
2018-07-15T16:59:44.938Z,31.40
2018-07-15T17:02:13.506Z,31.30
2018-07-15T17:04:42.002Z,31.20
2018-07-15T17:07:10.896Z,31.40
2018-07-15T17:09:39.374Z,31.40
2018-07-15T17:12:07.793Z,31.30
2018-07-15T17:17:04.371Z,31.00
2018-07-15T17:19:33.012Z,30.90
2018-07-15T17:22:01.643Z,31.00
2018-07-15T17:24:30.155Z,30.90
2018-07-15T17:26:58.706Z,30.60
2018-07-15T17:29:27.158Z,30.50
2018-07-15T17:31:55.702Z,30.30
2018-07-15T17:34:24.132Z,30.30
2018-07-15T17:36:52.616Z,30.10
2018-07-15T17:39:21.073Z,30.20
2018-07-15T17:41:49.702Z,30.00
2018-07-15T17:44:18.158Z,29.30
2018-07-15T17:46:46.678Z,28.20
2018-07-15T17:51:43.370Z,26.20
2018-07-15T17:54:12.171Z,25.40
2018-07-15T17:56:40.678Z,24.80
2018-07-15T17:59:09.389Z,24.20
2018-07-15T18:01:37.945Z,23.80
2018-07-15T18:04:06.677Z,23.50
2018-07-15T18:06:35.222Z,23.20
2018-07-15T18:09:03.867Z,22.90
2018-07-15T18:11:32.294Z,22.70
2018-07-15T18:14:00.860Z,22.60
2018-07-15T18:16:29.422Z,22.50
2018-07-15T18:18:57.957Z,22.30
2018-07-15T18:21:26.565Z,22.20
2018-07-15T18:23:55.285Z,22.10
2018-07-15T18:26:24.039Z,22.00
2018-07-15T18:28:52.635Z,21.80
2018-07-15T18:31:21.266Z,21.70
2018-07-15T18:33:49.964Z,21.60
2018-07-15T18:36:18.415Z,21.50
2018-07-15T18:38:47.116Z,21.40
2018-07-15T18:41:15.554Z,21.30
2018-07-15T18:43:44.118Z,21.20
2018-07-15T18:46:12.587Z,21.10
2018-07-15T18:48:41.131Z,21.00
2018-07-15T18:51:09.569Z,20.90
2018-07-15T18:53:38.176Z,20.80
2018-07-15T18:56:06.579Z,20.80
2018-07-15T18:58:35.210Z,20.80
2018-07-15T19:01:03.755Z,20.70
2018-07-15T19:03:32.242Z,20.60
2018-07-15T19:06:00.749Z,20.50
2018-07-15T19:08:29.296Z,20.50
2018-07-15T19:10:57.799Z,20.40
2018-07-15T19:13:26.258Z,20.30
2018-07-15T19:15:55.372Z,20.20
2018-07-15T19:18:24.105Z,20.10
2018-07-15T19:20:52.525Z,20.10
2018-07-15T19:23:21.187Z,19.90
2018-07-15T19:25:49.809Z,19.90
2018-07-15T19:28:18.432Z,19.80
2018-07-15T19:30:47.118Z,19.80
2018-07-15T19:33:15.586Z,19.70
2018-07-15T19:35:44.035Z,19.60
2018-07-15T19:38:12.663Z,19.50
2018-07-15T19:40:41.419Z,19.30
2018-07-15T19:43:09.978Z,19.30
2018-07-15T19:45:38.638Z,19.20
2018-07-15T19:48:07.088Z,19.10
2018-07-15T19:50:35.539Z,19.10
2018-07-15T19:53:04.106Z,19.00
2018-07-15T19:55:32.829Z,18.90
2018-07-15T19:58:01.379Z,18.80
2018-07-15T20:00:29.850Z,18.70
2018-07-15T20:02:58.274Z,18.60
2018-07-15T20:05:26.759Z,18.60
2018-07-15T20:07:55.329Z,18.50
2018-07-15T20:10:23.887Z,18.40
2018-07-15T20:12:52.338Z,18.30
2018-07-15T20:15:20.936Z,18.30
2018-07-15T20:17:49.554Z,18.20
2018-07-15T20:20:18.067Z,18.10
2018-07-15T20:22:46.738Z,18.00
2018-07-15T20:25:15.427Z,17.90
2018-07-15T20:27:43.959Z,17.80
2018-07-15T20:30:12.630Z,17.80
2018-07-15T20:32:41.115Z,17.70
2018-07-15T20:35:09.560Z,17.60
2018-07-15T20:40:06.330Z,17.50
2018-07-15T20:42:34.894Z,17.40
2018-07-15T20:45:03.682Z,17.40
2018-07-15T20:47:32.119Z,17.40
2018-07-15T20:50:00.668Z,17.40
2018-07-15T20:52:29.166Z,17.30
2018-07-15T20:54:57.590Z,17.30
2018-07-15T20:57:26.131Z,17.30
2018-07-15T20:59:54.627Z,17.20
2018-07-15T21:02:23.058Z,17.20
2018-07-15T21:04:51.469Z,17.10
2018-07-15T21:07:20.122Z,17.10
2018-07-15T21:09:48.582Z,17.00
2018-07-15T21:12:17.030Z,16.90
2018-07-15T21:14:45.615Z,16.80
2018-07-15T21:17:14.162Z,16.80
2018-07-15T21:19:42.714Z,16.70
2018-07-15T21:22:11.246Z,16.70
2018-07-15T21:24:39.918Z,16.60
2018-07-15T21:27:08.808Z,16.60
2018-07-15T21:29:37.400Z,16.70
2018-07-15T21:32:06.004Z,16.60
2018-07-15T21:34:34.446Z,16.60
2018-07-15T21:37:03.023Z,16.60
2018-07-15T21:39:31.482Z,16.60
2018-07-15T21:41:59.925Z,16.50
2018-07-15T21:44:28.671Z,16.40
2018-07-15T21:46:57.328Z,16.40
2018-07-15T21:49:25.856Z,16.30
2018-07-15T21:51:54.383Z,16.30
2018-07-15T21:54:22.864Z,16.30
2018-07-15T22:01:47.715Z,16.20
2018-07-15T22:04:16.294Z,16.20
2018-07-15T22:06:55.838Z,16.10
2018-07-15T22:09:47.676Z,16.10
2018-07-15T22:12:16.259Z,16.10
2018-07-15T22:14:44.782Z,16.10
2018-07-15T22:17:13.350Z,16.10
2018-07-15T22:19:41.758Z,16.10
2018-07-15T22:22:10.198Z,16.10
2018-07-15T22:24:38.982Z,16.10
2018-07-15T22:27:07.610Z,16.00
2018-07-15T22:29:36.037Z,16.00
2018-07-15T22:32:04.612Z,16.00
2018-07-15T22:37:01.246Z,15.90
2018-07-15T22:39:29.815Z,15.90
2018-07-15T22:41:58.283Z,15.90
2018-07-15T22:44:26.732Z,15.80
2018-07-15T22:46:55.223Z,15.80
2018-07-15T22:49:23.766Z,15.80
2018-07-15T22:51:52.255Z,15.80
2018-07-15T22:54:20.719Z,15.80
2018-07-15T22:56:49.264Z,15.70
2018-07-15T22:59:17.699Z,15.70
2018-07-15T23:01:46.291Z,15.70
2018-07-15T23:04:14.712Z,15.60
2018-07-15T23:06:43.241Z,15.60
2018-07-15T23:09:11.726Z,15.60
2018-07-15T23:11:40.285Z,15.60
2018-07-15T23:14:08.718Z,15.60
2018-07-15T23:16:37.331Z,15.60
2018-07-15T23:19:05.799Z,15.60
2018-07-15T23:21:34.247Z,15.60
2018-07-15T23:24:02.878Z,15.50
2018-07-15T23:26:31.358Z,15.50
2018-07-15T23:28:59.790Z,15.50
2018-07-15T23:31:28.293Z,15.50
2018-07-15T23:33:56.918Z,15.50
2018-07-15T23:36:25.374Z,15.50
2018-07-15T23:38:53.847Z,15.50
2018-07-15T23:41:22.405Z,15.40
2018-07-15T23:43:50.878Z,15.40
2018-07-15T23:46:19.498Z,15.40
2018-07-15T23:48:47.974Z,15.30
2018-07-15T23:51:16.442Z,15.30
2018-07-15T23:53:44.942Z,15.20
2018-07-15T23:56:13.494Z,15.20
2018-07-15T23:58:41.945Z,15.20
